Time;durP1;ratioP1;P1;durP2;ratioP2;P2;SDS_P1;SDS_P2;PMS_P1;PMS_P2;Temp;Humidity;BMP_temperature;BMP_pressure;BME280_temperature;BME280_humidity;BME280_pressure;Samples;Min_cycle;Max_cycle;Signal;HPM_P1;HPM_P2
2023/07/23 00:01:43;;;;;;;;;;;27.70;57.10;;;;;;5099225;27;42920;-80
2023/07/23 00:04:08;;;;;;;;;;;27.70;57.70;;;;;;5098352;27;43894;-80
2023/07/23 00:06:35;;;;;;;;;;;27.70;57.10;;;;;;5103235;27;42966;-82
2023/07/23 00:09:01;;;;;;;;;;;27.70;57.50;;;;;;5095364;27;42953;-82
2023/07/23 00:11:26;;;;;;;;;;;27.80;57.90;;;;;;5104357;27;43231;-81
2023/07/23 00:13:52;;;;;;;;;;;27.70;57.60;;;;;;5105929;27;42849;-81
2023/07/23 00:16:17;;;;;;;;;;;27.80;57.60;;;;;;5091580;27;43318;-81
2023/07/23 00:18:43;;;;;;;;;;;27.70;57.00;;;;;;5098702;27;43641;-81
2023/07/23 00:21:08;;;;;;;;;;;27.70;57.00;;;;;;5105804;27;43278;-81
2023/07/23 00:23:34;;;;;;;;;;;27.80;57.60;;;;;;5104347;27;43037;-80
2023/07/23 00:25:59;;;;;;;;;;;27.70;57.60;;;;;;5110785;27;43035;-81
2023/07/23 00:28:25;;;;;;;;;;;27.70;57.60;;;;;;5106198;27;43594;-81
2023/07/23 00:30:50;;;;;;;;;;;25.10;55.80;;;;;;5105351;27;43238;-81
2023/07/23 00:33:16;;;;;;;;;;;27.80;57.50;;;;;;5105732;27;42968;-81
2023/07/23 00:35:41;;;;;;;;;;;27.80;57.50;;;;;;5105689;27;43039;-82
2023/07/23 00:38:07;;;;;;;;;;;27.80;57.40;;;;;;5105855;27;43067;-81
2023/07/23 00:40:32;;;;;;;;;;;27.80;57.40;;;;;;5106261;27;43116;-81
2023/07/23 00:42:58;;;;;;;;;;;27.80;57.40;;;;;;5106089;27;43080;-81
2023/07/23 00:45:24;;;;;;;;;;;27.80;57.60;;;;;;5104208;27;44384;-81
2023/07/23 00:47:49;;;;;;;;;;;27.80;57.50;;;;;;5105697;27;43112;-81
2023/07/23 00:50:15;;;;;;;;;;;27.80;57.40;;;;;;5104014;27;42971;-82
2023/07/23 00:52:41;;;;;;;;;;;27.90;57.50;;;;;;5106464;27;42870;-81
2023/07/23 00:55:07;;;;;;;;;;;27.90;57.40;;;;;;5106278;27;42940;-81
2023/07/23 00:57:32;;;;;;;;;;;27.90;57.50;;;;;;5106615;27;42907;-81
2023/07/23 00:59:58;;;;;;;;;;;27.90;56.90;;;;;;5106592;27;42910;-81
2023/07/23 01:02:27;;;;;;;;;;;27.80;56.80;;;;;;5106185;27;43141;-82
2023/07/23 01:04:53;;;;;;;;;;;27.80;57.30;;;;;;5103859;27;42916;-80
2023/07/23 01:07:19;;;;;;;;;;;27.90;57.40;;;;;;5104460;27;43646;-80
2023/07/23 01:09:45;;;;;;;;;;;27.80;57.50;;;;;;5105596;27;43059;-80
2023/07/23 01:12:11;;;;;;;;;;;27.80;57.40;;;;;;5106418;27;43757;-81
2023/07/23 01:14:37;;;;;;;;;;;29.30;58.50;;;;;;5105752;27;42994;-81
2023/07/23 01:17:02;;;;;;;;;;;27.80;57.60;;;;;;5105459;27;43585;-81
2023/07/23 01:19:28;;;;;;;;;;;27.80;57.60;;;;;;5106130;27;42976;-81
2023/07/23 01:21:57;;;;;;;;;;;27.90;57.70;;;;;;5105792;27;43494;-80
2023/07/23 01:24:23;;;;;;;;;;;27.80;57.70;;;;;;5105586;27;42894;-81
2023/07/23 01:26:48;;;;;;;;;;;27.90;57.70;;;;;;5105930;27;43051;-80
2023/07/23 01:29:13;;;;;;;;;;;27.90;57.80;;;;;;5106207;27;42910;-80
2023/07/23 01:31:39;;;;;;;;;;;27.90;57.80;;;;;;5105611;27;43757;-81
2023/07/23 01:34:05;;;;;;;;;;;27.90;57.80;;;;;;5105889;27;43019;-81
2023/07/23 01:36:30;;;;;;;;;;;27.90;57.80;;;;;;5105885;27;43410;-81
2023/07/23 01:38:56;;;;;;;;;;;27.90;57.80;;;;;;5105787;27;42988;-81
2023/07/23 01:41:21;;;;;;;;;;;27.80;57.30;;;;;;5105386;27;44241;-81
2023/07/23 01:43:47;;;;;;;;;;;27.90;57.80;;;;;;5103496;27;43059;-81
2023/07/23 01:46:12;;;;;;;;;;;27.90;57.90;;;;;;5104841;27;43512;-80
2023/07/23 01:48:38;;;;;;;;;;;27.90;57.80;;;;;;5105145;27;42924;-81
2023/07/23 01:51:03;;;;;;;;;;;27.90;57.90;;;;;;5105046;27;43559;-80
2023/07/23 01:53:31;;;;;;;;;;;27.80;57.30;;;;;;5099633;27;60562;-80
2023/07/23 01:55:58;;;;;;;;;;;27.90;57.90;;;;;;5096765;27;43843;-81
2023/07/23 01:58:24;;;;;;;;;;;27.80;57.90;;;;;;5105499;27;42978;-80
2023/07/23 02:00:49;;;;;;;;;;;27.80;57.90;;;;;;5105269;27;43249;-81
2023/07/23 02:03:15;;;;;;;;;;;27.80;58.00;;;;;;5104958;27;43019;-80
2023/07/23 02:05:40;;;;;;;;;;;27.80;58.00;;;;;;5105075;27;43565;-80
2023/07/23 02:08:06;;;;;;;;;;;27.80;58.10;;;;;;5105350;27;42970;-81
2023/07/23 02:10:31;;;;;;;;;;;27.80;58.00;;;;;;5103720;27;43711;-81
2023/07/23 02:12:57;;;;;;;;;;;27.90;58.20;;;;;;5104800;27;43058;-80
2023/07/23 02:15:22;;;;;;;;;;;27.90;58.10;;;;;;5105071;27;42945;-81
2023/07/23 02:17:48;;;;;;;;;;;27.90;58.10;;;;;;5104937;27;42921;-80
2023/07/23 02:20:13;;;;;;;;;;;27.90;58.10;;;;;;5104845;27;44321;-81
2023/07/23 02:22:39;;;;;;;;;;;27.90;58.00;;;;;;5105049;27;43189;-81
2023/07/23 02:25:04;;;;;;;;;;;27.90;58.00;;;;;;5104322;27;43428;-80
2023/07/23 02:27:30;;;;;;;;;;;27.80;57.90;;;;;;5104749;27;42877;-80
2023/07/23 02:29:55;;;;;;;;;;;27.80;57.80;;;;;;5104973;27;43398;-80
2023/07/23 02:32:21;;;;;;;;;;;27.80;57.40;;;;;;5104790;27;42996;-81
2023/07/23 02:34:46;;;;;;;;;;;27.80;57.40;;;;;;5108096;27;43457;-81
2023/07/23 02:37:12;;;;;;;;;;;27.80;57.90;;;;;;5106742;27;42928;-80
2023/07/23 02:39:37;;;;;;;;;;;27.80;58.00;;;;;;5107858;27;42877;-81
2023/07/23 02:42:03;;;;;;;;;;;27.80;58.00;;;;;;5108020;27;43014;-81
2023/07/23 02:44:29;;;;;;;;;;;27.80;57.90;;;;;;5106253;27;43953;-81
2023/07/23 02:46:54;;;;;;;;;;;27.80;58.00;;;;;;5107740;27;43072;-81
2023/07/23 02:49:20;;;;;;;;;;;27.80;57.90;;;;;;5107991;27;43423;-81
2023/07/23 02:51:45;;;;;;;;;;;27.80;58.00;;;;;;5107848;27;43115;-81
2023/07/23 02:54:11;;;;;;;;;;;27.80;58.00;;;;;;5097208;27;43680;-80
2023/07/23 02:56:36;;;;;;;;;;;27.80;58.00;;;;;;5104015;27;43283;-81
2023/07/23 02:59:03;;;;;;;;;;;27.80;58.00;;;;;;5108173;27;43107;-81
2023/07/23 03:01:29;;;;;;;;;;;27.80;58.10;;;;;;5108168;27;42916;-81
2023/07/23 03:03:55;;;;;;;;;;;27.80;58.00;;;;;;5108382;27;42948;-81
2023/07/23 03:06:20;;;;;;;;;;;27.80;58.10;;;;;;5107064;27;43047;-81
2023/07/23 03:08:46;;;;;;;;;;;27.80;58.20;;;;;;5106413;27;43482;-80
2023/07/23 03:11:11;;;;;;;;;;;27.80;58.10;;;;;;5108278;27;42926;-80
2023/07/23 03:13:37;;;;;;;;;;;27.80;58.10;;;;;;5107782;27;43507;-81
2023/07/23 03:16:03;;;;;;;;;;;27.80;58.10;;;;;;5107555;27;43066;-81
2023/07/23 03:18:28;;;;;;;;;;;27.80;58.10;;;;;;5107582;27;43733;-81
2023/07/23 03:20:54;;;;;;;;;;;27.70;57.60;;;;;;5107652;27;43137;-81
2023/07/23 03:23:19;;;;;;;;;;;27.80;58.70;;;;;;5107676;27;42811;-81
2023/07/23 03:25:45;;;;;;;;;;;27.80;58.10;;;;;;5106837;27;42991;-81
2023/07/23 03:28:10;;;;;;;;;;;27.80;58.10;;;;;;5107832;27;42991;-81
2023/07/23 03:30:36;;;;;;;;;;;27.80;58.10;;;;;;5107112;27;42899;-81
2023/07/23 03:33:01;;;;;;;;;;;27.80;57.50;;;;;;5107315;27;43905;-81
2023/07/23 03:35:27;;;;;;;;;;;27.80;58.10;;;;;;5105928;27;42799;-81
2023/07/23 03:37:52;;;;;;;;;;;27.90;58.00;;;;;;5107611;27;43062;-80
2023/07/23 03:40:18;;;;;;;;;;;27.80;58.00;;;;;;5106597;27;42944;-80
2023/07/23 03:42:43;;;;;;;;;;;27.80;57.70;;;;;;5107039;27;42949;-80
2023/07/23 03:45:09;;;;;;;;;;;27.80;57.20;;;;;;5103185;27;43074;-81
2023/07/23 03:47:34;;;;;;;;;;;27.70;57.60;;;;;;5105610;27;44246;-81
2023/07/23 03:50:00;;;;;;;;;;;27.70;57.60;;;;;;5107632;27;42964;-80
2023/07/23 03:52:25;;;;;;;;;;;27.70;57.80;;;;;;5107289;27;43054;-81
2023/07/23 03:54:51;;;;;;;;;;;27.60;57.20;;;;;;5106837;27;43012;-81
2023/07/23 03:57:17;;;;;;;;;;;27.70;57.20;;;;;;5106359;27;43968;-80
2023/07/23 03:59:43;;;;;;;;;;;27.70;57.70;;;;;;5106607;27;43127;-81
2023/07/23 04:02:09;;;;;;;;;;;27.70;57.50;;;;;;5106978;27;43792;-80
2023/07/23 04:04:35;;;;;;;;;;;27.70;57.50;;;;;;5106599;27;43012;-80
2023/07/23 04:07:01;;;;;;;;;;;27.70;57.00;;;;;;5094420;27;43044;-80
2023/07/23 04:09:27;;;;;;;;;;;27.70;57.40;;;;;;5106186;27;42897;-81
2023/07/23 04:11:52;;;;;;;;;;;27.70;57.40;;;;;;5106060;27;43103;-81
2023/07/23 04:14:18;;;;;;;;;;;27.70;57.50;;;;;;5106563;27;43181;-80
2023/07/23 04:16:43;;;;;;;;;;;27.60;57.40;;;;;;5105397;27;44507;-81
2023/07/23 04:19:09;;;;;;;;;;;27.60;57.40;;;;;;5106946;27;43012;-81
2023/07/23 04:21:34;;;;;;;;;;;27.60;57.50;;;;;;5106670;27;43104;-81
2023/07/23 04:24:00;;;;;;;;;;;27.60;57.60;;;;;;5106193;27;42957;-81
2023/07/23 04:26:30;;;;;;;;;;;27.60;57.50;;;;;;5105935;27;42953;-81
2023/07/23 04:28:55;;;;;;;;;;;27.60;57.60;;;;;;5106524;27;43718;-81
2023/07/23 04:31:21;;;;;;;;;;;27.60;57.60;;;;;;5102263;27;43027;-81
2023/07/23 04:33:46;;;;;;;;;;;27.60;57.70;;;;;;5103675;27;43035;-81
2023/07/23 04:36:13;;;;;;;;;;;27.70;57.70;;;;;;5106482;27;44651;-81
2023/07/23 04:38:38;;;;;;;;;;;27.70;57.10;;;;;;5107113;27;42856;-81
2023/07/23 04:41:04;;;;;;;;;;;27.70;57.60;;;;;;5106578;27;43004;-81
2023/07/23 04:43:30;;;;;;;;;;;27.70;57.60;;;;;;5104708;27;42980;-80
2023/07/23 04:45:55;;;;;;;;;;;27.70;58.10;;;;;;5105999;27;43049;-81
2023/07/23 04:48:21;;;;;;;;;;;27.70;57.60;;;;;;5105379;27;43086;-81
2023/07/23 04:50:54;;;;;;;;;;;27.70;56.90;;;;;;5106201;27;42870;-81
2023/07/23 04:53:20;;;;;;;;;;;27.70;57.50;;;;;;5106508;27;42947;-80
2023/07/23 04:55:45;;;;;;;;;;;27.70;57.50;;;;;;5105993;27;43565;-81
2023/07/23 04:58:11;;;;;;;;;;;27.70;57.00;;;;;;5106217;27;43052;-81
2023/07/23 05:00:36;;;;;;;;;;;27.70;57.60;;;;;;5106330;27;43035;-81
2023/07/23 05:03:02;;;;;;;;;;;27.70;57.70;;;;;;5106093;27;43887;-80
2023/07/23 05:05:27;;;;;;;;;;;27.70;57.70;;;;;;5105948;27;43758;-81
2023/07/23 05:07:53;;;;;;;;;;;27.70;57.70;;;;;;5105844;27;43807;-80
2023/07/23 05:10:18;;;;;;;;;;;27.70;57.60;;;;;;5105946;27;42943;-81
2023/07/23 05:12:44;;;;;;;;;;;27.70;57.60;;;;;;5106138;27;42894;-80
2023/07/23 05:15:10;;;;;;;;;;;27.70;57.50;;;;;;5106564;27;42956;-81
2023/07/23 05:17:36;;;;;;;;;;;27.70;57.60;;;;;;5105667;27;44032;-81
2023/07/23 05:20:02;;;;;;;;;;;27.70;57.60;;;;;;5106436;27;43098;-80
2023/07/23 05:22:28;;;;;;;;;;;27.70;57.60;;;;;;5106139;27;43235;-81
2023/07/23 05:24:54;;;;;;;;;;;27.70;57.70;;;;;;5105717;27;42975;-81
2023/07/23 05:27:19;;;;;;;;;;;27.70;57.00;;;;;;5104566;27;43029;-81
2023/07/23 05:29:45;;;;;;;;;;;27.80;57.60;;;;;;5105889;27;43434;-81
2023/07/23 05:32:10;;;;;;;;;;;27.80;57.50;;;;;;5105543;27;42933;-81
2023/07/23 05:34:36;;;;;;;;;;;27.80;57.50;;;;;;5105683;27;43719;-80
2023/07/23 05:37:01;;;;;;;;;;;27.80;57.60;;;;;;5105235;27;42993;-79
2023/07/23 05:39:27;;;;;;;;;;;27.80;57.40;;;;;;5105117;27;43563;-81
2023/07/23 05:41:52;;;;;;;;;;;27.80;57.50;;;;;;5105266;27;42938;-80
2023/07/23 05:44:18;;;;;;;;;;;27.80;57.50;;;;;;5104197;27;43715;-81
2023/07/23 05:46:43;;;;;;;;;;;27.90;57.40;;;;;;5105605;27;43067;-80
2023/07/23 05:49:09;;;;;;;;;;;27.90;57.40;;;;;;5105731;27;43058;-81
2023/07/23 05:51:34;;;;;;;;;;;27.90;57.40;;;;;;5104856;27;43184;-81
2023/07/23 05:54:00;;;;;;;;;;;27.90;57.90;;;;;;5105530;27;43654;-80
2023/07/23 05:56:26;;;;;;;;;;;27.90;57.40;;;;;;5105022;27;43291;-81
2023/07/23 05:58:52;;;;;;;;;;;28.00;57.40;;;;;;5103837;27;44115;-81
2023/07/23 06:01:17;;;;;;;;;;;28.00;57.40;;;;;;5105365;27;42990;-81
2023/07/23 06:03:43;;;;;;;;;;;27.90;57.40;;;;;;5099126;27;43458;-81
2023/07/23 06:06:08;;;;;;;;;;;28.00;57.30;;;;;;5103495;27;42978;-81
2023/07/23 06:08:34;;;;;;;;;;;28.00;57.50;;;;;;5104126;27;42888;-81
2023/07/23 06:10:59;;;;;;;;;;;28.00;57.30;;;;;;5105251;27;42852;-81
2023/07/23 06:13:25;;;;;;;;;;;28.00;57.30;;;;;;5104892;27;42878;-81
2023/07/23 06:15:50;;;;;;;;;;;28.00;57.30;;;;;;5104260;27;43091;-81
2023/07/23 06:18:16;;;;;;;;;;;28.00;57.50;;;;;;5102608;27;43816;-81
2023/07/23 06:20:41;;;;;;;;;;;28.00;57.30;;;;;;5099355;27;42960;-81
2023/07/23 06:23:07;;;;;;;;;;;28.10;57.30;;;;;;5090635;27;44758;-81
2023/07/23 06:25:32;;;;;;;;;;;28.00;57.30;;;;;;5097550;27;42792;-82
2023/07/23 06:27:58;;;;;;;;;;;28.00;56.90;;;;;;5103225;27;42952;-79
2023/07/23 06:30:23;;;;;;;;;;;28.00;57.60;;;;;;5104669;27;42980;-79
2023/07/23 06:32:49;;;;;;;;;;;28.00;57.50;;;;;;5104216;27;43374;-83
2023/07/23 06:35:14;;;;;;;;;;;28.00;57.20;;;;;;5104752;27;43002;-78
2023/07/23 06:37:40;;;;;;;;;;;28.00;57.60;;;;;;5097111;27;43043;-83
2023/07/23 06:40:06;;;;;;;;;;;28.10;57.90;;;;;;5103164;27;42988;-83
2023/07/23 06:42:32;;;;;;;;;;;28.00;57.70;;;;;;5099914;27;43170;-83
2023/07/23 06:44:58;;;;;;;;;;;28.00;57.90;;;;;;5095796;27;42979;-83
2023/07/23 06:47:23;;;;;;;;;;;28.00;58.00;;;;;;5090550;27;43948;-83
2023/07/23 06:49:49;;;;;;;;;;;28.00;57.90;;;;;;5097026;27;42864;-83
2023/07/23 06:52:14;;;;;;;;;;;28.00;57.80;;;;;;5096602;27;42968;-83
2023/07/23 06:54:42;;;;;;;;;;;28.00;57.30;;;;;;5104574;27;42886;-83
2023/07/23 06:57:10;;;;;;;;;;;28.00;57.30;;;;;;5102458;27;43363;-81
2023/07/23 06:59:36;;;;;;;;;;;28.00;57.80;;;;;;5096773;27;43114;-84
2023/07/23 07:02:02;;;;;;;;;;;28.00;57.40;;;;;;5103744;27;43589;-84
2023/07/23 07:04:27;;;;;;;;;;;28.00;58.00;;;;;;5082946;27;43169;-84
2023/07/23 07:09:38;;;;;;;;;;;28.00;57.20;;;;;;5060784;28;42914;-84
2023/07/23 07:12:04;;;;;;;;;;;28.00;57.20;;;;;;5060055;28;43248;-84
2023/07/23 07:14:30;;;;;;;;;;;28.00;57.20;;;;;;5060349;28;42963;-83
2023/07/23 07:16:55;;;;;;;;;;;28.00;57.20;;;;;;5042059;28;44683;-82
2023/07/23 07:19:21;;;;;;;;;;;28.00;57.30;;;;;;5057374;28;43030;-81
2023/07/23 07:21:46;;;;;;;;;;;28.00;57.90;;;;;;5060801;28;43690;-81
2023/07/23 07:24:12;;;;;;;;;;;28.00;57.80;;;;;;5061918;28;42995;-82
2023/07/23 07:26:38;;;;;;;;;;;28.00;57.90;;;;;;5062504;28;43551;-81
2023/07/23 07:29:03;;;;;;;;;;;28.00;58.00;;;;;;5067261;28;43144;-81
2023/07/23 07:31:29;;;;;;;;;;;28.00;57.80;;;;;;5062702;28;42905;-82
2023/07/23 07:33:54;;;;;;;;;;;28.00;58.00;;;;;;5064425;28;42994;-80
2023/07/23 07:36:20;;;;;;;;;;;28.00;57.80;;;;;;5063938;28;43066;-81
2023/07/23 07:38:45;;;;;;;;;;;28.00;57.90;;;;;;5064140;28;42971;-83
2023/07/23 07:41:11;;;;;;;;;;;28.00;57.80;;;;;;5064168;28;43034;-81
2023/07/23 07:43:36;;;;;;;;;;;28.00;57.80;;;;;;5062357;28;44131;-81
2023/07/23 07:46:05;;;;;;;;;;;28.00;57.80;;;;;;5075385;27;43088;-84
2023/07/23 07:48:31;;;;;;;;;;;28.00;57.80;;;;;;5105122;27;42891;-84
2023/07/23 07:51:00;;;;;;;;;;;28.00;57.90;;;;;;5107613;27;43095;-83
2023/07/23 07:53:26;;;;;;;;;;;28.00;57.70;;;;;;5105797;27;43058;-84
2023/07/23 07:55:51;;;;;;;;;;;28.00;58.00;;;;;;5104546;27;45648;-85
2023/07/23 07:58:17;;;;;;;;;;;28.00;57.20;;;;;;5106570;27;43047;-85
2023/07/23 08:00:43;;;;;;;;;;;28.00;57.70;;;;;;5106697;27;43058;-85
2023/07/23 08:03:12;;;;;;;;;;;28.00;57.90;;;;;;5104055;27;43280;-85
2023/07/23 08:05:37;;;;;;;;;;;28.00;57.00;;;;;;5106578;27;43467;-85
2023/07/23 08:08:04;;;;;;;;;;;28.00;58.10;;;;;;5104476;27;42977;-85
2023/07/23 08:10:30;;;;;;;;;;;28.00;57.60;;;;;;5106806;27;42941;-85
2023/07/23 08:12:56;;;;;;;;;;;28.00;57.00;;;;;;5106690;27;42913;-85
2023/07/23 08:15:21;;;;;;;;;;;28.00;57.90;;;;;;5106982;27;43545;-85
2023/07/23 08:17:47;;;;;;;;;;;27.90;57.90;;;;;;5105341;27;43017;-83
2023/07/23 08:20:13;;;;;;;;;;;28.00;57.90;;;;;;5104944;27;44063;-85
2023/07/23 08:22:38;;;;;;;;;;;28.00;57.60;;;;;;5105576;27;43046;-85
2023/07/23 08:25:04;;;;;;;;;;;28.00;57.80;;;;;;5106834;27;43612;-85
2023/07/23 08:27:30;;;;;;;;;;;28.00;57.70;;;;;;5106441;27;42896;-84
2023/07/23 08:29:57;;;;;;;;;;;28.00;57.60;;;;;;5107058;27;43376;-84
2023/07/23 08:32:27;;;;;;;;;;;28.00;57.00;;;;;;5104057;27;42957;-85
2023/07/23 08:34:55;;;;;;;;;;;28.00;57.70;;;;;;5104696;27;45190;-85
2023/07/23 08:37:21;;;;;;;;;;;25.60;55.90;;;;;;5105159;27;43141;-85
2023/07/23 08:39:47;;;;;;;;;;;28.00;57.90;;;;;;5105110;27;45665;-85
2023/07/23 08:42:21;;;;;;;;;;;28.00;57.90;;;;;;5106362;27;42998;-84
2023/07/23 08:44:46;;;;;;;;;;;28.00;57.20;;;;;;5104391;27;44021;-85
2023/07/23 08:47:13;;;;;;;;;;;28.00;57.10;;;;;;5103217;27;43019;-84
2023/07/23 08:49:42;;;;;;;;;;;28.00;57.20;;;;;;5106432;27;43409;-85
2023/07/23 08:52:09;;;;;;;;;;;28.00;57.10;;;;;;5104907;27;42885;-86
2023/07/23 08:54:36;;;;;;;;;;;28.00;57.70;;;;;;5106104;27;43449;-84
2023/07/23 08:57:03;;;;;;;;;;;28.00;57.70;;;;;;5104999;27;43212;-87
2023/07/23 08:59:29;;;;;;;;;;;28.00;57.50;;;;;;5106240;27;43046;-86
2023/07/23 09:01:55;;;;;;;;;;;28.00;57.70;;;;;;5106938;27;42957;-85
2023/07/23 09:04:23;;;;;;;;;;;28.00;57.60;;;;;;5104221;27;45039;-85
2023/07/23 09:06:51;;;;;;;;;;;28.00;57.00;;;;;;5106173;27;42924;-87
2023/07/23 09:09:16;;;;;;;;;;;28.00;57.50;;;;;;5105660;27;44623;-86
2023/07/23 09:11:42;;;;;;;;;;;28.00;57.80;;;;;;5106163;27;42870;-86
2023/07/23 09:14:12;;;;;;;;;;;28.00;56.90;;;;;;5105123;27;42813;-85
2023/07/23 09:16:41;;;;;;;;;;;28.10;57.40;;;;;;5105852;27;43030;-85
2023/07/23 09:19:08;;;;;;;;;;;28.00;57.70;;;;;;5138462;27;45604;-85
2023/07/23 09:21:37;;;;;;;;;;;28.00;56.90;;;;;;5103788;27;43068;-85
2023/07/23 09:24:05;;;;;;;;;;;28.10;57.40;;;;;;5105285;27;42947;-86
2023/07/23 09:26:31;;;;;;;;;;;28.00;56.80;;;;;;5104746;27;42879;-86
2023/07/23 09:28:59;;;;;;;;;;;28.00;58.50;;;;;;5104147;27;43605;-86
2023/07/23 09:31:31;;;;;;;;;;;28.40;58.30;;;;;;5105495;27;43080;-86
2023/07/23 09:34:02;;;;;;;;;;;28.00;56.70;;;;;;5103779;27;44041;-86
2023/07/23 09:36:29;;;;;;;;;;;28.00;56.70;;;;;;5105740;27;43032;-85
2023/07/23 09:39:02;;;;;;;;;;;28.00;56.70;;;;;;5099915;27;42880;-85
2023/07/23 09:41:29;;;;;;;;;;;28.40;57.50;;;;;;5096634;27;43061;-85
2023/07/23 09:44:02;;;;;;;;;;;28.10;56.80;;;;;;5102485;27;43966;-85
2023/07/23 09:46:28;;;;;;;;;;;28.10;57.30;;;;;;5091180;27;42948;-85
2023/07/23 09:48:53;;;;;;;;;;;28.10;56.90;;;;;;5105667;27;43653;-85
2023/07/23 09:51:19;;;;;;;;;;;28.10;56.90;;;;;;5105214;27;43063;-86
2023/07/23 09:53:47;;;;;;;;;;;28.10;56.90;;;;;;5105197;27;44026;-86
2023/07/23 09:56:16;;;;;;;;;;;28.10;57.90;;;;;;5105056;27;42999;-86
2023/07/23 09:58:43;;;;;;;;;;;28.10;56.90;;;;;;5105021;27;42980;-87
2023/07/23 10:01:09;;;;;;;;;;;28.10;57.00;;;;;;5105301;27;42833;-86
2023/07/23 10:03:35;;;;;;;;;;;28.10;56.90;;;;;;5105084;27;42867;-86
2023/07/23 10:06:10;;;;;;;;;;;28.10;58.30;;;;;;5105033;27;42947;-85
2023/07/23 10:08:41;;;;;;;;;;;28.10;56.70;;;;;;5104764;27;43148;-86
2023/07/23 10:11:07;;;;;;;;;;;28.10;56.70;;;;;;5105204;27;42983;-86
2023/07/23 10:13:33;;;;;;;;;;;28.10;56.70;;;;;;5103216;27;43964;-86
2023/07/23 10:15:59;;;;;;;;;;;28.10;56.60;;;;;;5104951;27;42991;-86
2023/07/23 10:18:33;;;;;;;;;;;28.20;57.70;;;;;;5138310;27;44957;-86
2023/07/23 10:20:59;;;;;;;;;;;28.10;56.70;;;;;;5104943;27;42869;-85
2023/07/23 10:23:30;;;;;;;;;;;28.10;56.80;;;;;;5105228;27;43000;-88
2023/07/23 10:26:14;;;;;;;;;;;28.10;57.30;;;;;;5103699;27;42972;-86
2023/07/23 10:28:40;;;;;;;;;;;28.20;57.30;;;;;;5104307;27;43213;-88
2023/07/23 10:31:26;;;;;;;;;;;28.10;56.80;;;;;;5105146;27;42945;-89
2023/07/23 10:33:58;;;;;;;;;;;28.10;56.50;;;;;;5104235;27;42922;-89
2023/07/23 10:36:24;;;;;;;;;;;28.10;56.40;;;;;;5104028;27;43322;-89
2023/07/23 10:39:16;;;;;;;;;;;28.10;56.30;;;;;;5104283;27;42930;-87
2023/07/23 10:41:49;;;;;;;;;;;28.10;56.70;;;;;;5105172;27;42906;-88
2023/07/23 10:44:24;;;;;;;;;;;28.20;56.70;;;;;;5090366;27;44622;-84
2023/07/23 10:46:50;;;;;;;;;;;28.10;56.70;;;;;;5104805;27;42981;-88
2023/07/23 10:49:21;;;;;;;;;;;28.10;56.20;;;;;;5103174;27;45364;-89
2023/07/23 10:51:49;;;;;;;;;;;28.10;56.60;;;;;;5101852;27;43112;-88
2023/07/23 10:54:14;;;;;;;;;;;28.10;56.70;;;;;;5090917;27;43024;-88
2023/07/23 10:56:47;;;;;;;;;;;28.10;56.40;;;;;;5107488;27;43209;-88
2023/07/23 10:59:14;;;;;;;;;;;31.40;58.70;;;;;;5097667;27;43518;-84
2023/07/23 11:01:41;;;;;;;;;;;28.10;56.30;;;;;;5094267;27;42976;-86
2023/07/23 11:04:16;;;;;;;;;;;28.10;56.20;;;;;;5097345;27;44184;-86
2023/07/23 11:07:01;;;;;;;;;;;28.10;56.10;;;;;;5103704;27;43182;-88
2023/07/23 11:09:28;;;;;;;;;;;28.20;56.10;;;;;;5106640;27;43165;-85
2023/07/23 11:11:54;;;;;;;;;;;28.20;56.30;;;;;;5107097;27;43214;-86
2023/07/23 11:14:20;;;;;;;;;;;28.10;56.20;;;;;;5104117;27;44271;-86
2023/07/23 11:16:51;;;;;;;;;;;28.10;56.20;;;;;;5105286;27;43040;-86
2023/07/23 11:19:18;;;;;;;;;;;28.30;56.30;;;;;;5106671;27;42817;-86
2023/07/23 11:21:51;;;;;;;;;;;28.10;56.20;;;;;;5106410;27;43011;-86
2023/07/23 11:24:17;;;;;;;;;;;28.10;56.20;;;;;;5103299;27;43580;-86
2023/07/23 11:26:43;;;;;;;;;;;28.10;56.20;;;;;;5105837;27;42825;-86
2023/07/23 11:29:09;;;;;;;;;;;28.20;56.30;;;;;;5106213;27;43176;-87
2023/07/23 11:31:35;;;;;;;;;;;28.10;56.30;;;;;;5140155;27;43046;-87
2023/07/23 11:34:00;;;;;;;;;;;28.20;56.30;;;;;;5107556;27;42927;-85
2023/07/23 11:36:27;;;;;;;;;;;28.10;55.70;;;;;;5103156;27;43074;-85
2023/07/23 11:38:53;;;;;;;;;;;28.20;56.40;;;;;;5099066;27;43008;-86
2023/07/23 11:41:19;;;;;;;;;;;28.20;56.30;;;;;;5107461;27;42809;-86
2023/07/23 11:43:44;;;;;;;;;;;28.20;56.40;;;;;;5106489;27;43902;-86
2023/07/23 11:46:16;;;;;;;;;;;28.20;56.50;;;;;;5105695;27;43395;-86
2023/07/23 11:48:41;;;;;;;;;;;28.10;56.30;;;;;;5106330;27;43932;-86
2023/07/23 11:51:07;;;;;;;;;;;28.20;56.60;;;;;;5106755;27;43031;-87
2023/07/23 11:53:33;;;;;;;;;;;28.10;56.30;;;;;;5105735;27;43033;-86
2023/07/23 11:56:06;;;;;;;;;;;28.10;56.30;;;;;;5105485;27;42997;-86
2023/07/23 11:58:34;;;;;;;;;;;28.10;56.20;;;;;;5105310;27;44431;-88
2023/07/23 12:01:00;;;;;;;;;;;28.20;56.20;;;;;;5093916;27;42897;-86
2023/07/23 12:03:26;;;;;;;;;;;28.10;56.30;;;;;;5105909;27;43198;-87
2023/07/23 12:05:52;;;;;;;;;;;28.10;55.60;;;;;;5103094;27;43381;-88
2023/07/23 12:08:21;;;;;;;;;;;28.20;56.20;;;;;;5103350;27;44887;-87
2023/07/23 12:10:46;;;;;;;;;;;26.20;54.80;;;;;;5106405;27;43053;-87
2023/07/23 12:13:12;;;;;;;;;;;28.10;56.30;;;;;;5098345;27;42955;-86
2023/07/23 12:15:38;;;;;;;;;;;28.20;56.30;;;;;;5099708;27;42940;-87
2023/07/23 12:18:08;;;;;;;;;;;28.20;56.00;;;;;;5093631;27;43044;-85
2023/07/23 12:20:33;;;;;;;;;;;28.20;56.10;;;;;;5101278;27;43052;-85
2023/07/23 12:23:00;;;;;;;;;;;28.20;56.20;;;;;;5094930;27;43374;-86
2023/07/23 12:25:26;;;;;;;;;;;28.20;56.10;;;;;;5100226;27;43899;-85
2023/07/23 12:27:52;;;;;;;;;;;28.20;56.00;;;;;;5103779;27;43543;-88
2023/07/23 12:30:17;;;;;;;;;;;28.20;56.10;;;;;;5103229;27;43550;-87
2023/07/23 12:32:46;;;;;;;;;;;28.20;56.20;;;;;;5105677;27;43516;-87
2023/07/23 12:35:12;;;;;;;;;;;28.20;56.00;;;;;;5104414;27;42830;-87
2023/07/23 12:37:38;;;;;;;;;;;28.20;56.20;;;;;;5131305;27;44849;-88
2023/07/23 12:40:04;;;;;;;;;;;28.20;56.20;;;;;;5105892;27;43003;-87
2023/07/23 12:42:33;;;;;;;;;;;28.20;56.10;;;;;;5105229;27;42995;-88
2023/07/23 12:44:59;;;;;;;;;;;28.20;56.20;;;;;;5105316;27;42990;-88
2023/07/23 12:47:25;;;;;;;;;;;28.20;56.50;;;;;;5105261;27;43411;-87
2023/07/23 12:49:50;;;;;;;;;;;28.20;55.70;;;;;;5103195;27;43061;-87
2023/07/23 12:52:19;;;;;;;;;;;28.20;56.40;;;;;;5106024;27;43589;-87
2023/07/23 12:54:45;;;;;;;;;;;28.20;57.00;;;;;;5095843;27;42928;-88
2023/07/23 12:57:12;;;;;;;;;;;28.20;56.40;;;;;;5105167;27;43788;-89
2023/07/23 12:59:37;;;;;;;;;;;28.20;56.50;;;;;;5102914;27;43479;-89
2023/07/23 13:02:03;;;;;;;;;;;28.20;56.30;;;;;;5102720;27;44731;-88
2023/07/23 13:04:32;;;;;;;;;;;28.20;57.20;;;;;;5103521;27;43609;-87
2023/07/23 13:06:57;;;;;;;;;;;28.20;57.30;;;;;;5104602;27;43564;-90
2023/07/23 13:09:23;;;;;;;;;;;28.20;57.20;;;;;;5102065;27;43270;-89
2023/07/23 13:11:48;;;;;;;;;;;28.10;57.10;;;;;;5136564;27;44946;-89
2023/07/23 13:14:14;;;;;;;;;;;28.20;56.30;;;;;;5102195;27;43222;-90
2023/07/23 13:16:39;;;;;;;;;;;28.20;57.40;;;;;;5110439;27;43073;-87
2023/07/23 13:19:05;;;;;;;;;;;28.20;56.90;;;;;;5091822;27;43184;-90
2023/07/23 13:21:31;;;;;;;;;;;28.10;56.10;;;;;;5099261;27;44794;-90
2023/07/23 13:24:02;;;;;;;;;;;28.20;57.20;;;;;;5102424;27;42911;-90
2023/07/23 13:26:28;;;;;;;;;;;26.10;55.10;;;;;;5099738;27;44357;-90
2023/07/23 13:28:54;;;;;;;;;;;28.20;56.90;;;;;;5091657;27;43023;-90
2023/07/23 13:31:31;;;;;;;;;;;28.00;55.60;;;;;;5099099;27;43181;-90
2023/07/23 13:34:03;;;;;;;;;;;28.10;55.60;;;;;;5099442;27;43034;-90
2023/07/23 13:36:34;;;;;;;;;;;28.90;56.70;;;;;;5104088;27;43086;-91
2023/07/23 13:39:03;;;;;;;;;;;28.20;55.40;;;;;;5104251;27;42795;-91
2023/07/23 13:41:31;;;;;;;;;;;30.10;57.10;;;;;;5102232;27;44581;-91
2023/07/23 13:44:08;;;;;;;;;;;28.10;55.30;;;;;;5102787;27;42985;-90
2023/07/23 13:46:49;;;;;;;;;;;28.20;55.50;;;;;;5111981;27;43095;-89
2023/07/23 13:49:24;;;;;;;;;;;29.10;56.60;;;;;;5103318;27;43023;-88
2023/07/23 13:51:55;;;;;;;;;;;28.10;55.30;;;;;;5104464;27;42991;-89
2023/07/23 13:54:49;;;;;;;;;;;29.30;56.50;;;;;;5102144;27;43002;-89
2023/07/23 14:00:12;;;;;;;;;;;28.20;56.00;;;;;;5100553;27;43247;-90
2023/07/23 14:02:46;;;;;;;;;;;28.90;56.10;;;;;;5101220;27;44533;-89
2023/07/23 14:05:14;;;;;;;;;;;28.80;56.00;;;;;;5089162;27;42998;-89
2023/07/23 14:07:40;;;;;;;;;;;28.90;56.20;;;;;;5099436;27;43208;-89
2023/07/23 14:10:08;;;;;;;;;;;28.20;55.10;;;;;;5100310;27;43625;-89
2023/07/23 14:12:40;;;;;;;;;;;27.80;55.30;;;;;;5101002;27;43866;-90
2023/07/23 14:15:05;;;;;;;;;;;27.50;55.20;;;;;;5099238;27;44390;-86
2023/07/23 14:17:31;;;;;;;;;;;28.30;56.50;;;;;;5101993;27;43058;-86
2023/07/23 14:19:59;;;;;;;;;;;28.20;55.30;;;;;;5100505;27;43272;-88